Tofteviken — C6ZO5 — position and weather

sailwx.info

Track history (hours):
 
Tides and Currents Weather Stations Pressure Air Temp Water Temp Dewpoint Dewpoint Depression Visibility Wind Speed Wind Dir Waves Ship Positions

Tofteviken

Last reported at 2017-Oct-06 10:16 UTC. Time now 2017-Oct-17 20:19 UTC.
Position N 36°57' W 073°48'.
Warning: this ship's position is 11 days out of date.

Length 249 m; draft 8.8 m.

Type: Tanker. MMSI: 311061400.

Date/timePositionNaut miles runAvg speedWind from/ knotsBaromVisibWave heightAir tempDewpointWater temp
2017-Oct-06 10:16N 36°57' W 073°48'513.6
2017-Oct-06 09:56N 37°01' W 073°51'613.4
2017-Oct-06 09:30N 37°07' W 073°54'713.7
2017-Oct-06 09:01N 37°13' W 073°57'713.9
2017-Oct-06 08:30N 37°19' W 074°01'1313.9
2017-Oct-06 07:34N 37°31' W 074°09'113.3
2017-Oct-06 07:30N 37°31' W 074°09'713.6
2017-Oct-06 07:00N 37°38' W 074°13'713.3
2017-Oct-06 06:30N 37°44' W 074°16'713.4
2017-Oct-06 06:00N 37°50' W 074°20'713.8
2017-Oct-06 05:28N 37°56' W 074°24'613.5
2017-Oct-06 05:00N 38°02' W 074°27'713.3
2017-Oct-06 04:29N 38°08' W 074°31'713.4
2017-Oct-06 03:58N 38°14' W 074°35'612.6
2017-Oct-06 03:30N 38°20' W 074°38'713.5
2017-Oct-06 03:01N 38°26' W 074°42'913.4
2017-Oct-06 02:23N 38°32' W 074°49'513.2
2017-Oct-06 02:01N 38°36' W 074°53'712.9
2017-Oct-06 01:30N 38°42' W 074°57'612.4
2017-Oct-06 01:00N 38°46' W 075°02'510.5
2017-Oct-06 00:30N 38°51' W 075°05'4 7.7
2017-Oct-06 00:00N 38°55' W 075°06'612.2
2017-Oct-05 23:30N 39°01' W 075°09'612.2
2017-Oct-05 23:01N 39°06' W 075°12'612.8
2017-Oct-05 22:31N 39°11' W 075°17'713.9
2017-Oct-05 22:01N 39°17' W 075°22'815.5
2017-Oct-05 21:31N 39°23' W 075°29'714.6
2017-Oct-05 21:01N 39°29' W 075°34'713.0
2017-Oct-05 20:30N 39°36' W 075°34'612.8
2017-Oct-05 20:00N 39°42' W 075°31'510.6
2017-Oct-05 19:30N 39°46' W 075°28'4 8.1
2017-Oct-05 19:00N 39°49' W 075°24'0 0.5
2017-Oct-05 18:29N 39°49' W 075°24'0 0.0
2017-Oct-05 17:59N 39°49' W 075°24'0 0.0
2017-Oct-05 17:29N 39°49' W 075°23'0 0.0
2017-Oct-05 16:59N 39°49' W 075°24'0 0.0
2017-Oct-05 15:29N 39°49' W 075°24'0 0.0
2017-Oct-05 14:59N 39°49' W 075°24'0 0.0
2017-Oct-05 14:29N 39°49' W 075°24'0 0.0
2017-Oct-05 13:59N 39°49' W 075°24'0 0.0
2017-Oct-05 13:29N 39°49' W 075°24'0 0.4
2017-Oct-05 12:59N 39°49' W 075°24'0 0.3
2017-Oct-05 12:29N 39°49' W 075°24'0 0.1
2017-Oct-05 11:59N 39°49' W 075°24'0 0.0
2017-Oct-05 11:29N 39°49' W 075°24'0 0.0
2017-Oct-05 10:59N 39°49' W 075°24'0 0.0
2017-Oct-05 10:29N 39°49' W 075°24'0 0.0
2017-Oct-05 09:59N 39°49' W 075°24'0 0.0
2017-Oct-05 09:26N 39°49' W 075°24'0 0.0
2017-Oct-05 08:59N 39°49' W 075°24'0 0.0
2017-Oct-05 08:29N 39°49' W 075°24'0 0.0
2017-Oct-05 07:59N 39°49' W 075°24'0 0.0
2017-Oct-05 07:29N 39°49' W 075°24'0 0.3
2017-Oct-05 06:59N 39°49' W 075°24'0 0.4
2017-Oct-05 06:29N 39°49' W 075°24'0 0.1
2017-Oct-05 05:59N 39°49' W 075°24'0 0.0
2017-Oct-05 05:29N 39°49' W 075°24'0 0.0
2017-Oct-05 04:59N 39°49' W 075°24'0 0.1
2017-Oct-05 04:26N 39°49' W 075°24'1 2.1
2017-Oct-05 04:01N 39°48' W 075°25'3 6.9
2017-Oct-05 03:30N 39°46' W 075°28'5 9.0
2017-Oct-05 03:01N 39°42' W 075°31'5 9.8
2017-Oct-05 02:31N 39°38' W 075°34'5 9.0
2017-Oct-05 02:01N 39°34' W 075°33'2 4.8
2017-Oct-05 01:30N 39°35' W 075°35'0 0.2
2017-Oct-05 01:00N 39°35' W 075°35'0 0.0
2017-Oct-05 00:28N 39°35' W 075°35'0 0.0
2017-Oct-04 23:58N 39°35' W 075°35'0 0.0
2017-Oct-04 23:28N 39°35' W 075°35'0 0.0
2017-Oct-04 23:00N 39°35' W 075°35'0 0.0
2017-Oct-04 22:29N 39°35' W 075°35'0 0.0
2017-Oct-04 21:59N 39°35' W 075°35'0 0.0
2017-Oct-04 21:29N 39°35' W 075°35'0 0.0
2017-Oct-04 20:59N 39°35' W 075°35'0 0.0
2017-Oct-04 20:29N 39°35' W 075°35'0 0.0
2017-Oct-04 19:59N 39°35' W 075°35'0 0.0
2017-Oct-04 19:29N 39°35' W 075°35'0 0.0
2017-Oct-04 18:59N 39°35' W 075°35'0 0.0
2017-Oct-04 18:29N 39°35' W 075°35'0 0.0
2017-Oct-04 17:59N 39°35' W 075°35'0 0.0
2017-Oct-04 17:29N 39°35' W 075°35'0 0.0
2017-Oct-04 16:59N 39°35' W 075°35'0 0.0
2017-Oct-04 16:29N 39°35' W 075°35'0 0.0
2017-Oct-04 15:59N 39°35' W 075°35'0 0.0
2017-Oct-04 15:29N 39°35' W 075°35'0 0.0
2017-Oct-04 14:59N 39°35' W 075°35'0 0.0
2017-Oct-04 14:29N 39°35' W 075°35'0 0.0
2017-Oct-04 13:59N 39°35' W 075°35'0 0.0
2017-Oct-04 13:29N 39°35' W 075°35'0 0.0
2017-Oct-04 12:59N 39°35' W 075°35'0 0.0
2017-Oct-04 12:29N 39°35' W 075°35'0 0.0
2017-Oct-04 11:59N 39°35' W 075°35'0 0.0
2017-Oct-04 11:29N 39°35' W 075°35'0 0.0
2017-Oct-04 10:59N 39°35' W 075°35'0 0.0
2017-Oct-04 10:29N 39°35' W 075°35'0 0.0
2017-Oct-04 09:59N 39°35' W 075°35'0 0.0
2017-Oct-04 09:29N 39°35' W 075°35'0 0.0
2017-Oct-04 08:59N 39°35' W 075°35'0 0.0
2017-Oct-04 08:29N 39°35' W 075°35'0 0.0
2017-Oct-04 07:59N 39°35' W 075°35'0 0.0
2017-Oct-04 07:29N 39°35' W 075°35'0 0.0
2017-Oct-04 06:59N 39°35' W 075°35'0 0.0
2017-Oct-04 06:29N 39°35' W 075°35'0 0.0
2017-Oct-04 05:59N 39°35' W 075°35'0 0.0
2017-Oct-04 05:29N 39°35' W 075°35'0 0.0
2017-Oct-04 04:59N 39°35' W 075°35'0 0.0
2017-Oct-04 04:30N 39°35' W 075°35'0 0.0
2017-Oct-04 03:59N 39°35' W 075°35'0 0.0
2017-Oct-04 03:29N 39°35' W 075°35'0 0.0
2017-Oct-04 02:59N 39°35' W 075°35'0 0.0
2017-Oct-04 02:29N 39°35' W 075°35'0 0.0
2017-Oct-04 01:59N 39°35' W 075°35'0 0.0
2017-Oct-04 01:29N 39°35' W 075°35'0 0.0
2017-Oct-04 00:59N 39°35' W 075°35'0 0.0
2017-Oct-04 00:29N 39°35' W 075°35'0 0.0
2017-Oct-03 23:59N 39°35' W 075°35'0 0.0
2017-Oct-03 23:29N 39°35' W 075°35'0 0.0
2017-Oct-03 22:59N 39°35' W 075°35'0 0.0
2017-Oct-03 22:29N 39°35' W 075°35'0 0.0
2017-Oct-03 21:59N 39°35' W 075°35'0 0.0
2017-Oct-03 21:29N 39°35' W 075°35'0 0.0
2017-Oct-03 20:59N 39°35' W 075°35'0 0.0
2017-Oct-03 20:29N 39°35' W 075°35'0 0.0
2017-Oct-03 19:59N 39°35' W 075°35'0 0.0
2017-Oct-03 19:29N 39°35' W 075°35'0 0.0
2017-Oct-03 18:59N 39°35' W 075°35'0 0.0
2017-Oct-03 18:29N 39°35' W 075°35'0 0.0
2017-Oct-03 17:59N 39°35' W 075°35'0 0.0
2017-Oct-03 17:29N 39°35' W 075°35'0 0.0
2017-Oct-03 16:59N 39°35' W 075°35'0 0.0
2017-Oct-03 16:29N 39°35' W 075°35'0 0.3
2017-Oct-03 16:01N 39°35' W 075°35'3 5.4
2017-Oct-03 15:31N 39°33' W 075°32'3 6.5
2017-Oct-03 15:00N 39°30' W 075°33'9 9.2
2017-Oct-03 14:00N 39°22' W 075°27'611.9
2017-Oct-03 13:30N 39°18' W 075°22'612.8
2017-Oct-03 13:00N 39°13' W 075°17'713.8
2017-Oct-03 12:30N 39°07' W 075°13'713.7
2017-Oct-03 12:01N 39°01' W 075°09'714.2
2017-Oct-03 11:31N 38°54' W 075°05'713.1
2017-Oct-03 11:01N 38°48' W 075°02'3 6.7
2017-Oct-03 10:30N 38°46' W 074°59'3 6.5
2017-Oct-03 10:01N 38°44' W 074°56'2 4.7
2017-Oct-03 09:30N 38°42' W 074°54'1 2.8
2017-Oct-03 09:01N 38°41' W 074°53'3 6.2
2017-Oct-03 08:30N 38°38' W 074°50'3 5.3
2017-Oct-03 08:01N 38°36' W 074°48'3 5.2
2017-Oct-03 07:30N 38°34' W 074°46'3 5.9
2017-Oct-03 07:00N 38°32' W 074°44'2 4.7
2017-Oct-03 06:30N 38°30' W 074°42'3 6.1
2017-Oct-03 06:00N 38°27' W 074°40'3 5.8
2017-Oct-03 05:29N 38°25' W 074°38'2 4.7
2017-Oct-03 05:01N 38°23' W 074°38'3 4.9
2017-Oct-03 04:27N 38°20' W 074°40'2 4.9
2017-Oct-03 04:00N 38°18' W 074°41'2 4.9
2017-Oct-03 03:30N 38°16' W 074°43'2 5.0
2017-Oct-03 03:01N 38°14' W 074°44'2 5.0
2017-Oct-03 02:30N 38°12' W 074°46'3 5.1
2017-Oct-03 01:51N 38°09' W 074°48'3 5.3
2017-Oct-03 01:19N 38°07' W 074°51'4 4.5
2017-Oct-03 00:28N 38°04' W 074°54'0 0.7
2017-Oct-02 23:56N 38°04' W 074°53'4 0.9
2017-Oct-02 19:24N 38°02' W 074°49'0 1.0
2017-Oct-02 19:00N 38°02' W 074°48'2 1.1
2017-Oct-02 16:52N 38°03' W 074°45'0 1.0
2017-Oct-02 16:25N 38°03' W 074°45'1 1.0
2017-Oct-02 15:46N 38°03' W 074°44'0 0.9
2017-Oct-02 15:30N 38°03' W 074°44'1 1.0
2017-Oct-02 14:40N 38°04' W 074°43'0 0.9
2017-Oct-02 14:30N 38°04' W 074°43'0 1.0
2017-Oct-02 14:00N 38°05' W 074°43'0 0.9
2017-Oct-02 13:31N 38°05' W 074°43'0 0.8
2017-Oct-02 13:01N 38°05' W 074°43'0 0.8
2017-Oct-02 12:24N 38°06' W 074°42'0 0.6
2017-Oct-02 12:01N 38°06' W 074°42'0 0.5
2017-Oct-02 11:30N 38°06' W 074°42'1 0.4
2017-Oct-02 09:53N 38°06' W 074°41'1 1.7
2017-Oct-02 09:17N 38°06' W 074°42'1 1.4
2017-Oct-02 08:39N 38°06' W 074°43'3 1.1
2017-Oct-02 05:51N 38°09' W 074°41'0 1.1
2017-Oct-02 05:28N 38°09' W 074°40'  
2017-Sep-29 12:37N 38°29' W 074°37'0 0.0
2017-Sep-29 12:19N 38°29' W 074°37'0 0.0
2017-Sep-29 11:55N 38°29' W 074°37'0 0.0
2017-Sep-29 11:25N 38°29' W 074°37'0 0.0
2017-Sep-29 09:49N 38°29' W 074°37'0 0.0
2017-Sep-28 15:55N 38°29' W 074°37'0 0.1
2017-Sep-28 15:28N 38°29' W 074°37'0 0.0
2017-Sep-28 12:52N 38°29' W 074°37'0 0.0
2017-Sep-28 12:28N 38°29' W 074°37'0 0.0
2017-Sep-28 11:37N 38°29' W 074°37'0 0.1
2017-Sep-28 11:25N 38°29' W 074°37'0 0.0
2017-Sep-28 10:58N 38°29' W 074°37'0 0.1
2017-Sep-28 10:22N 38°29' W 074°37'0 0.0
2017-Sep-28 09:52N 38°29' W 074°37'0 0.0
2017-Sep-28 09:19N 38°29' W 074°37'0 0.1
2017-Sep-28 08:52N 38°29' W 074°37'0 0.1
2017-Sep-28 08:28N 38°29' W 074°37'0 0.1
2017-Sep-28 07:58N 38°29' W 074°37'0 0.0
2017-Sep-28 07:25N 38°29' W 074°37'0 0.0
2017-Sep-28 06:55N 38°29' W 074°37'0 0.0
2017-Sep-28 06:13N 38°29' W 074°37'0 0.1
2017-Sep-28 05:52N 38°29' W 074°37'0 0.0
2017-Sep-28 05:25N 38°29' W 074°37'0 0.0
2017-Sep-26 15:28N 38°30' W 074°37'0 0.0
2017-Sep-26 14:22N 38°30' W 074°37'0 0.1
2017-Sep-26 13:55N 38°30' W 074°37'0 0.0
2017-Sep-26 13:25N 38°30' W 074°37'0 0.0
2017-Sep-26 12:52N 38°30' W 074°37'0 0.0
2017-Sep-26 11:43N 38°30' W 074°37'0 0.0
2017-Sep-26 11:28N 38°30' W 074°37'0 0.0
2017-Sep-26 10:52N 38°30' W 074°37'  
Track history (hours):
 
Tides and Currents Weather Stations Pressure Air Temp Water Temp Dewpoint Dewpoint Depression Visibility Wind Speed Wind Dir Waves Ship Positions

Tofteviken

Last reported at 2017-Oct-06 10:16 UTC. Time now 2017-Oct-17 20:19 UTC.
Position N 36°57' W 073°48'.
Warning: this ship's position is 11 days out of date.

Length 249 m; draft 8.8 m.

Type: Tanker. MMSI: 311061400.

Date/timePositionNaut miles runAvg speedWind from/ knotsBaromVisibWave heightAir tempDewpointWater temp
2017-Oct-06 10:16N 36°57' W 073°48'513.6
2017-Oct-06 09:56N 37°01' W 073°51'613.4
2017-Oct-06 09:30N 37°07' W 073°54'713.7
2017-Oct-06 09:01N 37°13' W 073°57'713.9
2017-Oct-06 08:30N 37°19' W 074°01'1313.9
2017-Oct-06 07:34N 37°31' W 074°09'113.3
2017-Oct-06 07:30N 37°31' W 074°09'713.6
2017-Oct-06 07:00N 37°38' W 074°13'713.3
2017-Oct-06 06:30N 37°44' W 074°16'713.4
2017-Oct-06 06:00N 37°50' W 074°20'713.8
2017-Oct-06 05:28N 37°56' W 074°24'613.5
2017-Oct-06 05:00N 38°02' W 074°27'713.3
2017-Oct-06 04:29N 38°08' W 074°31'713.4
2017-Oct-06 03:58N 38°14' W 074°35'612.6
2017-Oct-06 03:30N 38°20' W 074°38'713.5
2017-Oct-06 03:01N 38°26' W 074°42'913.4
2017-Oct-06 02:23N 38°32' W 074°49'513.2
2017-Oct-06 02:01N 38°36' W 074°53'712.9
2017-Oct-06 01:30N 38°42' W 074°57'612.4
2017-Oct-06 01:00N 38°46' W 075°02'510.5
2017-Oct-06 00:30N 38°51' W 075°05'4 7.7
2017-Oct-06 00:00N 38°55' W 075°06'612.2
2017-Oct-05 23:30N 39°01' W 075°09'612.2
2017-Oct-05 23:01N 39°06' W 075°12'612.8
2017-Oct-05 22:31N 39°11' W 075°17'713.9
2017-Oct-05 22:01N 39°17' W 075°22'815.5
2017-Oct-05 21:31N 39°23' W 075°29'714.6
2017-Oct-05 21:01N 39°29' W 075°34'713.0
2017-Oct-05 20:30N 39°36' W 075°34'612.8
2017-Oct-05 20:00N 39°42' W 075°31'510.6
2017-Oct-05 19:30N 39°46' W 075°28'4 8.1
2017-Oct-05 19:00N 39°49' W 075°24'0 0.5
2017-Oct-05 18:29N 39°49' W 075°24'0 0.0
2017-Oct-05 17:59N 39°49' W 075°24'0 0.0
2017-Oct-05 17:29N 39°49' W 075°23'0 0.0
2017-Oct-05 16:59N 39°49' W 075°24'0 0.0
2017-Oct-05 15:29N 39°49' W 075°24'0 0.0
2017-Oct-05 14:59N 39°49' W 075°24'0 0.0
2017-Oct-05 14:29N 39°49' W 075°24'0 0.0
2017-Oct-05 13:59N 39°49' W 075°24'0 0.0
2017-Oct-05 13:29N 39°49' W 075°24'0 0.4
2017-Oct-05 12:59N 39°49' W 075°24'0 0.3
2017-Oct-05 12:29N 39°49' W 075°24'0 0.1
2017-Oct-05 11:59N 39°49' W 075°24'0 0.0
2017-Oct-05 11:29N 39°49' W 075°24'0 0.0
2017-Oct-05 10:59N 39°49' W 075°24'0 0.0
2017-Oct-05 10:29N 39°49' W 075°24'0 0.0
2017-Oct-05 09:59N 39°49' W 075°24'0 0.0
2017-Oct-05 09:26N 39°49' W 075°24'0 0.0
2017-Oct-05 08:59N 39°49' W 075°24'0 0.0
2017-Oct-05 08:29N 39°49' W 075°24'0 0.0
2017-Oct-05 07:59N 39°49' W 075°24'0 0.0
2017-Oct-05 07:29N 39°49' W 075°24'0 0.3
2017-Oct-05 06:59N 39°49' W 075°24'0 0.4
2017-Oct-05 06:29N 39°49' W 075°24'0 0.1
2017-Oct-05 05:59N 39°49' W 075°24'0 0.0
2017-Oct-05 05:29N 39°49' W 075°24'0 0.0
2017-Oct-05 04:59N 39°49' W 075°24'0 0.1
2017-Oct-05 04:26N 39°49' W 075°24'1 2.1
2017-Oct-05 04:01N 39°48' W 075°25'3 6.9
2017-Oct-05 03:30N 39°46' W 075°28'5 9.0
2017-Oct-05 03:01N 39°42' W 075°31'5 9.8
2017-Oct-05 02:31N 39°38' W 075°34'5 9.0
2017-Oct-05 02:01N 39°34' W 075°33'2 4.8
2017-Oct-05 01:30N 39°35' W 075°35'0 0.2
2017-Oct-05 01:00N 39°35' W 075°35'0 0.0
2017-Oct-05 00:28N 39°35' W 075°35'0 0.0
2017-Oct-04 23:58N 39°35' W 075°35'0 0.0
2017-Oct-04 23:28N 39°35' W 075°35'0 0.0
2017-Oct-04 23:00N 39°35' W 075°35'0 0.0
2017-Oct-04 22:29N 39°35' W 075°35'0 0.0
2017-Oct-04 21:59N 39°35' W 075°35'0 0.0
2017-Oct-04 21:29N 39°35' W 075°35'0 0.0
2017-Oct-04 20:59N 39°35' W 075°35'0 0.0
2017-Oct-04 20:29N 39°35' W 075°35'0 0.0
2017-Oct-04 19:59N 39°35' W 075°35'0 0.0
2017-Oct-04 19:29N 39°35' W 075°35'0 0.0
2017-Oct-04 18:59N 39°35' W 075°35'0 0.0
2017-Oct-04 18:29N 39°35' W 075°35'0 0.0
2017-Oct-04 17:59N 39°35' W 075°35'0 0.0
2017-Oct-04 17:29N 39°35' W 075°35'0 0.0
2017-Oct-04 16:59N 39°35' W 075°35'0 0.0
2017-Oct-04 16:29N 39°35' W 075°35'0 0.0
2017-Oct-04 15:59N 39°35' W 075°35'0 0.0
2017-Oct-04 15:29N 39°35' W 075°35'0 0.0
2017-Oct-04 14:59N 39°35' W 075°35'0 0.0
2017-Oct-04 14:29N 39°35' W 075°35'0 0.0
2017-Oct-04 13:59N 39°35' W 075°35'0 0.0
2017-Oct-04 13:29N 39°35' W 075°35'0 0.0
2017-Oct-04 12:59N 39°35' W 075°35'0 0.0
2017-Oct-04 12:29N 39°35' W 075°35'0 0.0
2017-Oct-04 11:59N 39°35' W 075°35'0 0.0
2017-Oct-04 11:29N 39°35' W 075°35'0 0.0
2017-Oct-04 10:59N 39°35' W 075°35'0 0.0
2017-Oct-04 10:29N 39°35' W 075°35'0 0.0
2017-Oct-04 09:59N 39°35' W 075°35'0 0.0
2017-Oct-04 09:29N 39°35' W 075°35'0 0.0
2017-Oct-04 08:59N 39°35' W 075°35'0 0.0
2017-Oct-04 08:29N 39°35' W 075°35'0 0.0
2017-Oct-04 07:59N 39°35' W 075°35'0 0.0
2017-Oct-04 07:29N 39°35' W 075°35'0 0.0
2017-Oct-04 06:59N 39°35' W 075°35'0 0.0
2017-Oct-04 06:29N 39°35' W 075°35'0 0.0
2017-Oct-04 05:59N 39°35' W 075°35'0 0.0
2017-Oct-04 05:29N 39°35' W 075°35'0 0.0
2017-Oct-04 04:59N 39°35' W 075°35'0 0.0
2017-Oct-04 04:30N 39°35' W 075°35'0 0.0
2017-Oct-04 03:59N 39°35' W 075°35'0 0.0
2017-Oct-04 03:29N 39°35' W 075°35'0 0.0
2017-Oct-04 02:59N 39°35' W 075°35'0 0.0
2017-Oct-04 02:29N 39°35' W 075°35'0 0.0
2017-Oct-04 01:59N 39°35' W 075°35'0 0.0
2017-Oct-04 01:29N 39°35' W 075°35'0 0.0
2017-Oct-04 00:59N 39°35' W 075°35'0 0.0
2017-Oct-04 00:29N 39°35' W 075°35'0 0.0
2017-Oct-03 23:59N 39°35' W 075°35'0 0.0
2017-Oct-03 23:29N 39°35' W 075°35'0 0.0
2017-Oct-03 22:59N 39°35' W 075°35'0 0.0
2017-Oct-03 22:29N 39°35' W 075°35'0 0.0
2017-Oct-03 21:59N 39°35' W 075°35'0 0.0
2017-Oct-03 21:29N 39°35' W 075°35'0 0.0
2017-Oct-03 20:59N 39°35' W 075°35'0 0.0
2017-Oct-03 20:29N 39°35' W 075°35'0 0.0
2017-Oct-03 19:59N 39°35' W 075°35'0 0.0
2017-Oct-03 19:29N 39°35' W 075°35'0 0.0
2017-Oct-03 18:59N 39°35' W 075°35'0 0.0
2017-Oct-03 18:29N 39°35' W 075°35'0 0.0
2017-Oct-03 17:59N 39°35' W 075°35'0 0.0
2017-Oct-03 17:29N 39°35' W 075°35'0 0.0
2017-Oct-03 16:59N 39°35' W 075°35'0 0.0
2017-Oct-03 16:29N 39°35' W 075°35'0 0.3
2017-Oct-03 16:01N 39°35' W 075°35'3 5.4
2017-Oct-03 15:31N 39°33' W 075°32'3 6.5
2017-Oct-03 15:00N 39°30' W 075°33'9 9.2
2017-Oct-03 14:00N 39°22' W 075°27'611.9
2017-Oct-03 13:30N 39°18' W 075°22'612.8
2017-Oct-03 13:00N 39°13' W 075°17'713.8
2017-Oct-03 12:30N 39°07' W 075°13'713.7
2017-Oct-03 12:01N 39°01' W 075°09'714.2
2017-Oct-03 11:31N 38°54' W 075°05'713.1
2017-Oct-03 11:01N 38°48' W 075°02'3 6.7
2017-Oct-03 10:30N 38°46' W 074°59'3 6.5
2017-Oct-03 10:01N 38°44' W 074°56'2 4.7
2017-Oct-03 09:30N 38°42' W 074°54'1 2.8
2017-Oct-03 09:01N 38°41' W 074°53'3 6.2
2017-Oct-03 08:30N 38°38' W 074°50'3 5.3
2017-Oct-03 08:01N 38°36' W 074°48'3 5.2
2017-Oct-03 07:30N 38°34' W 074°46'3 5.9
2017-Oct-03 07:00N 38°32' W 074°44'2 4.7
2017-Oct-03 06:30N 38°30' W 074°42'3 6.1
2017-Oct-03 06:00N 38°27' W 074°40'3 5.8
2017-Oct-03 05:29N 38°25' W 074°38'2 4.7
2017-Oct-03 05:01N 38°23' W 074°38'3 4.9
2017-Oct-03 04:27N 38°20' W 074°40'2 4.9
2017-Oct-03 04:00N 38°18' W 074°41'2 4.9
2017-Oct-03 03:30N 38°16' W 074°43'2 5.0
2017-Oct-03 03:01N 38°14' W 074°44'2 5.0
2017-Oct-03 02:30N 38°12' W 074°46'3 5.1
2017-Oct-03 01:51N 38°09' W 074°48'3 5.3
2017-Oct-03 01:19N 38°07' W 074°51'4 4.5
2017-Oct-03 00:28N 38°04' W 074°54'0 0.7
2017-Oct-02 23:56N 38°04' W 074°53'4 0.9
2017-Oct-02 19:24N 38°02' W 074°49'0 1.0
2017-Oct-02 19:00N 38°02' W 074°48'2 1.1
2017-Oct-02 16:52N 38°03' W 074°45'0 1.0
2017-Oct-02 16:25N 38°03' W 074°45'1 1.0
2017-Oct-02 15:46N 38°03' W 074°44'0 0.9
2017-Oct-02 15:30N 38°03' W 074°44'1 1.0
2017-Oct-02 14:40N 38°04' W 074°43'0 0.9
2017-Oct-02 14:30N 38°04' W 074°43'0 1.0
2017-Oct-02 14:00N 38°05' W 074°43'0 0.9
2017-Oct-02 13:31N 38°05' W 074°43'0 0.8
2017-Oct-02 13:01N 38°05' W 074°43'0 0.8
2017-Oct-02 12:24N 38°06' W 074°42'0 0.6
2017-Oct-02 12:01N 38°06' W 074°42'0 0.5
2017-Oct-02 11:30N 38°06' W 074°42'1 0.4
2017-Oct-02 09:53N 38°06' W 074°41'1 1.7
2017-Oct-02 09:17N 38°06' W 074°42'1 1.4
2017-Oct-02 08:39N 38°06' W 074°43'3 1.1
2017-Oct-02 05:51N 38°09' W 074°41'0 1.1
2017-Oct-02 05:28N 38°09' W 074°40'  
2017-Sep-29 12:37N 38°29' W 074°37'0 0.0
2017-Sep-29 12:19N 38°29' W 074°37'0 0.0
2017-Sep-29 11:55N 38°29' W 074°37'0 0.0
2017-Sep-29 11:25N 38°29' W 074°37'0 0.0
2017-Sep-29 09:49N 38°29' W 074°37'0 0.0
2017-Sep-28 15:55N 38°29' W 074°37'0 0.1
2017-Sep-28 15:28N 38°29' W 074°37'0 0.0
2017-Sep-28 12:52N 38°29' W 074°37'0 0.0
2017-Sep-28 12:28N 38°29' W 074°37'0 0.0
2017-Sep-28 11:37N 38°29' W 074°37'0 0.1
2017-Sep-28 11:25N 38°29' W 074°37'0 0.0
2017-Sep-28 10:58N 38°29' W 074°37'0 0.1
2017-Sep-28 10:22N 38°29' W 074°37'0 0.0
2017-Sep-28 09:52N 38°29' W 074°37'0 0.0
2017-Sep-28 09:19N 38°29' W 074°37'0 0.1
2017-Sep-28 08:52N 38°29' W 074°37'0 0.1
2017-Sep-28 08:28N 38°29' W 074°37'0 0.1
2017-Sep-28 07:58N 38°29' W 074°37'0 0.0
2017-Sep-28 07:25N 38°29' W 074°37'0 0.0
2017-Sep-28 06:55N 38°29' W 074°37'0 0.0
2017-Sep-28 06:13N 38°29' W 074°37'0 0.1
2017-Sep-28 05:52N 38°29' W 074°37'0 0.0
2017-Sep-28 05:25N 38°29' W 074°37'0 0.0
2017-Sep-26 15:28N 38°30' W 074°37'0 0.0
2017-Sep-26 14:22N 38°30' W 074°37'0 0.1
2017-Sep-26 13:55N 38°30' W 074°37'0 0.0
2017-Sep-26 13:25N 38°30' W 074°37'0 0.0
2017-Sep-26 12:52N 38°30' W 074°37'0 0.0
2017-Sep-26 11:43N 38°30' W 074°37'0 0.0
2017-Sep-26 11:28N 38°30' W 074°37'0 0.0
2017-Sep-26 10:52N 38°30' W 074°37'  

Dump ship's entire track history